sensor_id;sensor_type;location;lat;lon;timestamp;P1;durP1;ratioP1;P2;durP2;ratioP2
23573;SDS011;11965;53.640;10.050;2023-11-19T00:00:32;10.10;;;10.01;;
23573;SDS011;11965;53.640;10.050;2023-11-19T00:02:58;9.83;;;9.83;;
23573;SDS011;11965;53.640;10.050;2023-11-19T00:05:26;9.76;;;9.76;;
23573;SDS011;11965;53.640;10.050;2023-11-19T00:07:54;9.04;;;9.02;;
23573;SDS011;11965;53.640;10.050;2023-11-19T00:10:21;8.76;;;8.76;;
23573;SDS011;11965;53.640;10.050;2023-11-19T00:12:48;8.04;;;8.04;;
23573;SDS011;11965;53.640;10.050;2023-11-19T00:15:16;7.64;;;7.64;;
23573;SDS011;11965;53.640;10.050;2023-11-19T00:17:46;8.32;;;8.32;;
23573;SDS011;11965;53.640;10.050;2023-11-19T00:20:14;7.25;;;7.25;;
23573;SDS011;11965;53.640;10.050;2023-11-19T00:22:42;7.78;;;7.57;;
23573;SDS011;11965;53.640;10.050;2023-11-19T00:25:13;7.75;;;7.49;;
23573;SDS011;11965;53.640;10.050;2023-11-19T00:27:40;7.26;;;7.26;;
23573;SDS011;11965;53.640;10.050;2023-11-19T00:30:10;7.00;;;6.95;;
23573;SDS011;11965;53.640;10.050;2023-11-19T00:32:37;7.07;;;6.98;;
23573;SDS011;11965;53.640;10.050;2023-11-19T00:35:06;6.48;;;6.47;;
23573;SDS011;11965;53.640;10.050;2023-11-19T00:37:35;6.93;;;6.80;;
23573;SDS011;11965;53.640;10.050;2023-11-19T00:40:02;6.43;;;6.43;;
23573;SDS011;11965;53.640;10.050;2023-11-19T00:42:30;6.02;;;6.02;;
23573;SDS011;11965;53.640;10.050;2023-11-19T00:44:57;5.79;;;5.79;;
23573;SDS011;11965;53.640;10.050;2023-11-19T00:47:24;5.74;;;5.74;;
23573;SDS011;11965;53.640;10.050;2023-11-19T00:49:51;5.71;;;5.71;;
23573;SDS011;11965;53.640;10.050;2023-11-19T00:52:19;5.52;;;5.47;;
23573;SDS011;11965;53.640;10.050;2023-11-19T00:54:47;4.71;;;4.71;;
23573;SDS011;11965;53.640;10.050;2023-11-19T00:57:14;4.44;;;4.44;;
23573;SDS011;11965;53.640;10.050;2023-11-19T00:59:42;4.28;;;4.28;;
23573;SDS011;11965;53.640;10.050;2023-11-19T01:02:10;4.30;;;4.30;;
23573;SDS011;11965;53.640;10.050;2023-11-19T01:04:36;4.35;;;4.35;;
23573;SDS011;11965;53.640;10.050;2023-11-19T01:07:04;4.15;;;4.15;;
23573;SDS011;11965;53.640;10.050;2023-11-19T01:09:33;3.80;;;3.80;;
23573;SDS011;11965;53.640;10.050;2023-11-19T01:12:00;3.65;;;3.65;;
23573;SDS011;11965;53.640;10.050;2023-11-19T01:14:28;3.68;;;3.68;;
23573;SDS011;11965;53.640;10.050;2023-11-19T01:16:56;3.60;;;3.60;;
23573;SDS011;11965;53.640;10.050;2023-11-19T01:19:23;3.50;;;3.50;;
23573;SDS011;11965;53.640;10.050;2023-11-19T01:21:50;3.27;;;3.27;;
23573;SDS011;11965;53.640;10.050;2023-11-19T01:24:17;3.84;;;3.84;;
23573;SDS011;11965;53.640;10.050;2023-11-19T01:26:46;3.37;;;3.37;;
23573;SDS011;11965;53.640;10.050;2023-11-19T01:29:14;3.09;;;3.09;;
23573;SDS011;11965;53.640;10.050;2023-11-19T01:31:41;3.09;;;3.09;;
23573;SDS011;11965;53.640;10.050;2023-11-19T01:34:09;2.97;;;2.97;;
23573;SDS011;11965;53.640;10.050;2023-11-19T01:36:36;2.74;;;2.74;;
23573;SDS011;11965;53.640;10.050;2023-11-19T01:39:04;2.74;;;2.74;;
23573;SDS011;11965;53.640;10.050;2023-11-19T01:41:33;2.26;;;2.26;;
23573;SDS011;11965;53.640;10.050;2023-11-19T01:44:03;2.48;;;2.48;;
23573;SDS011;11965;53.640;10.050;2023-11-19T01:46:32;2.39;;;2.39;;
23573;SDS011;11965;53.640;10.050;2023-11-19T01:49:02;2.36;;;2.36;;
23573;SDS011;11965;53.640;10.050;2023-11-19T01:51:32;2.44;;;2.44;;
23573;SDS011;11965;53.640;10.050;2023-11-19T01:54:00;2.43;;;2.43;;
23573;SDS011;11965;53.640;10.050;2023-11-19T01:56:28;2.33;;;2.33;;
23573;SDS011;11965;53.640;10.050;2023-11-19T01:58:56;2.26;;;2.26;;
23573;SDS011;11965;53.640;10.050;2023-11-19T02:01:25;2.36;;;2.36;;
23573;SDS011;11965;53.640;10.050;2023-11-19T02:03:55;2.23;;;2.23;;
23573;SDS011;11965;53.640;10.050;2023-11-19T02:06:23;2.39;;;2.39;;
23573;SDS011;11965;53.640;10.050;2023-11-19T02:08:52;2.14;;;2.14;;
23573;SDS011;11965;53.640;10.050;2023-11-19T02:11:19;1.81;;;1.81;;
23573;SDS011;11965;53.640;10.050;2023-11-19T02:13:46;1.83;;;1.83;;
23573;SDS011;11965;53.640;10.050;2023-11-19T02:16:13;1.71;;;1.71;;
23573;SDS011;11965;53.640;10.050;2023-11-19T02:18:41;1.74;;;1.74;;
23573;SDS011;11965;53.640;10.050;2023-11-19T02:21:08;1.56;;;1.56;;
23573;SDS011;11965;53.640;10.050;2023-11-19T02:23:36;1.57;;;1.57;;
23573;SDS011;11965;53.640;10.050;2023-11-19T02:26:05;1.45;;;1.45;;
23573;SDS011;11965;53.640;10.050;2023-11-19T02:28:42;1.43;;;1.43;;
23573;SDS011;11965;53.640;10.050;2023-11-19T02:31:10;1.35;;;1.35;;
23573;SDS011;11965;53.640;10.050;2023-11-19T02:33:37;1.44;;;1.44;;
23573;SDS011;11965;53.640;10.050;2023-11-19T02:36:05;1.43;;;1.43;;
23573;SDS011;11965;53.640;10.050;2023-11-19T02:38:33;1.46;;;1.46;;
23573;SDS011;11965;53.640;10.050;2023-11-19T02:41:02;1.30;;;1.30;;
23573;SDS011;11965;53.640;10.050;2023-11-19T02:43:30;1.40;;;1.40;;
23573;SDS011;11965;53.640;10.050;2023-11-19T02:46:01;1.43;;;1.43;;
23573;SDS011;11965;53.640;10.050;2023-11-19T02:48:29;1.42;;;1.42;;
23573;SDS011;11965;53.640;10.050;2023-11-19T02:50:56;1.67;;;1.67;;
23573;SDS011;11965;53.640;10.050;2023-11-19T02:53:23;1.43;;;1.43;;
23573;SDS011;11965;53.640;10.050;2023-11-19T02:55:53;1.43;;;1.43;;
23573;SDS011;11965;53.640;10.050;2023-11-19T02:58:26;1.47;;;1.47;;
23573;SDS011;11965;53.640;10.050;2023-11-19T03:00:54;1.39;;;1.39;;
23573;SDS011;11965;53.640;10.050;2023-11-19T03:03:25;1.43;;;1.43;;
23573;SDS011;11965;53.640;10.050;2023-11-19T03:05:56;1.70;;;1.70;;
23573;SDS011;11965;53.640;10.050;2023-11-19T03:08:23;1.50;;;1.50;;
23573;SDS011;11965;53.640;10.050;2023-11-19T03:10:50;1.60;;;1.60;;
23573;SDS011;11965;53.640;10.050;2023-11-19T03:13:17;1.47;;;1.47;;
23573;SDS011;11965;53.640;10.050;2023-11-19T03:15:44;1.51;;;1.51;;
23573;SDS011;11965;53.640;10.050;2023-11-19T03:18:11;1.50;;;1.50;;
23573;SDS011;11965;53.640;10.050;2023-11-19T03:20:39;1.49;;;1.49;;
23573;SDS011;11965;53.640;10.050;2023-11-19T03:23:06;1.60;;;1.60;;
23573;SDS011;11965;53.640;10.050;2023-11-19T03:25:33;1.43;;;1.43;;
23573;SDS011;11965;53.640;10.050;2023-11-19T03:28:02;1.52;;;1.52;;
23573;SDS011;11965;53.640;10.050;2023-11-19T03:30:30;1.66;;;1.66;;
23573;SDS011;11965;53.640;10.050;2023-11-19T03:32:58;1.67;;;1.67;;
23573;SDS011;11965;53.640;10.050;2023-11-19T03:35:26;1.74;;;1.74;;
23573;SDS011;11965;53.640;10.050;2023-11-19T03:37:54;1.77;;;1.77;;
23573;SDS011;11965;53.640;10.050;2023-11-19T03:40:21;1.88;;;1.88;;
23573;SDS011;11965;53.640;10.050;2023-11-19T03:42:49;2.13;;;2.13;;
23573;SDS011;11965;53.640;10.050;2023-11-19T03:45:16;2.26;;;2.26;;
23573;SDS011;11965;53.640;10.050;2023-11-19T03:47:43;2.17;;;2.17;;
23573;SDS011;11965;53.640;10.050;2023-11-19T03:50:09;1.93;;;1.93;;
23573;SDS011;11965;53.640;10.050;2023-11-19T03:52:36;2.15;;;2.15;;
23573;SDS011;11965;53.640;10.050;2023-11-19T03:55:05;2.20;;;2.20;;
23573;SDS011;11965;53.640;10.050;2023-11-19T03:57:33;2.26;;;2.26;;
23573;SDS011;11965;53.640;10.050;2023-11-19T04:00:00;2.15;;;2.15;;
23573;SDS011;11965;53.640;10.050;2023-11-19T04:02:38;2.57;;;2.57;;
23573;SDS011;11965;53.640;10.050;2023-11-19T04:05:06;2.51;;;2.51;;
23573;SDS011;11965;53.640;10.050;2023-11-19T04:07:35;2.52;;;2.52;;
23573;SDS011;11965;53.640;10.050;2023-11-19T04:10:02;2.54;;;2.54;;
23573;SDS011;11965;53.640;10.050;2023-11-19T04:12:31;2.42;;;2.42;;
23573;SDS011;11965;53.640;10.050;2023-11-19T04:14:58;2.57;;;2.57;;
23573;SDS011;11965;53.640;10.050;2023-11-19T04:17:25;2.89;;;2.89;;
23573;SDS011;11965;53.640;10.050;2023-11-19T04:19:51;3.01;;;3.01;;
23573;SDS011;11965;53.640;10.050;2023-11-19T04:22:18;3.21;;;3.21;;
23573;SDS011;11965;53.640;10.050;2023-11-19T04:24:46;3.36;;;3.36;;
23573;SDS011;11965;53.640;10.050;2023-11-19T04:27:13;3.34;;;3.34;;
23573;SDS011;11965;53.640;10.050;2023-11-19T04:29:42;3.32;;;3.32;;
23573;SDS011;11965;53.640;10.050;2023-11-19T04:32:08;3.55;;;3.55;;
23573;SDS011;11965;53.640;10.050;2023-11-19T04:34:35;3.30;;;3.30;;
23573;SDS011;11965;53.640;10.050;2023-11-19T04:37:03;3.27;;;3.27;;
23573;SDS011;11965;53.640;10.050;2023-11-19T04:39:30;3.42;;;3.42;;
23573;SDS011;11965;53.640;10.050;2023-11-19T04:41:57;3.85;;;3.85;;
23573;SDS011;11965;53.640;10.050;2023-11-19T04:44:24;4.10;;;4.10;;
23573;SDS011;11965;53.640;10.050;2023-11-19T04:46:53;4.55;;;4.55;;
23573;SDS011;11965;53.640;10.050;2023-11-19T04:49:19;4.80;;;4.80;;
23573;SDS011;11965;53.640;10.050;2023-11-19T04:51:46;5.04;;;5.04;;
23573;SDS011;11965;53.640;10.050;2023-11-19T04:54:13;5.57;;;5.57;;
23573;SDS011;11965;53.640;10.050;2023-11-19T04:56:40;5.80;;;5.80;;
23573;SDS011;11965;53.640;10.050;2023-11-19T04:59:12;5.59;;;5.59;;
23573;SDS011;11965;53.640;10.050;2023-11-19T05:01:39;5.98;;;5.98;;
23573;SDS011;11965;53.640;10.050;2023-11-19T05:04:08;6.53;;;6.53;;
23573;SDS011;11965;53.640;10.050;2023-11-19T05:06:35;6.98;;;6.98;;
23573;SDS011;11965;53.640;10.050;2023-11-19T05:09:03;7.17;;;7.17;;
23573;SDS011;11965;53.640;10.050;2023-11-19T05:11:32;7.45;;;7.45;;
23573;SDS011;11965;53.640;10.050;2023-11-19T05:13:59;8.13;;;8.13;;
23573;SDS011;11965;53.640;10.050;2023-11-19T05:16:26;8.37;;;8.37;;
23573;SDS011;11965;53.640;10.050;2023-11-19T05:18:53;8.15;;;8.15;;
23573;SDS011;11965;53.640;10.050;2023-11-19T05:21:20;8.69;;;8.69;;
23573;SDS011;11965;53.640;10.050;2023-11-19T05:23:47;9.47;;;9.47;;
23573;SDS011;11965;53.640;10.050;2023-11-19T05:26:17;9.70;;;9.70;;
23573;SDS011;11965;53.640;10.050;2023-11-19T05:28:46;9.80;;;9.80;;
23573;SDS011;11965;53.640;10.050;2023-11-19T05:31:15;9.54;;;9.54;;
23573;SDS011;11965;53.640;10.050;2023-11-19T05:33:44;10.87;;;10.87;;
23573;SDS011;11965;53.640;10.050;2023-11-19T05:36:11;10.82;;;10.82;;
23573;SDS011;11965;53.640;10.050;2023-11-19T05:38:40;10.14;;;10.14;;
23573;SDS011;11965;53.640;10.050;2023-11-19T05:41:07;10.96;;;10.96;;
23573;SDS011;11965;53.640;10.050;2023-11-19T05:43:34;11.55;;;11.55;;
23573;SDS011;11965;53.640;10.050;2023-11-19T05:46:01;11.30;;;11.30;;
23573;SDS011;11965;53.640;10.050;2023-11-19T05:48:28;11.56;;;11.56;;
23573;SDS011;11965;53.640;10.050;2023-11-19T05:50:55;11.35;;;11.35;;
23573;SDS011;11965;53.640;10.050;2023-11-19T05:53:22;11.43;;;11.43;;
23573;SDS011;11965;53.640;10.050;2023-11-19T05:55:51;11.37;;;11.37;;
23573;SDS011;11965;53.640;10.050;2023-11-19T05:58:22;11.97;;;11.97;;
23573;SDS011;11965;53.640;10.050;2023-11-19T06:00:53;11.99;;;11.99;;
23573;SDS011;11965;53.640;10.050;2023-11-19T06:03:20;11.74;;;11.74;;
23573;SDS011;11965;53.640;10.050;2023-11-19T06:05:47;11.25;;;11.25;;
23573;SDS011;11965;53.640;10.050;2023-11-19T06:08:15;11.06;;;11.06;;
23573;SDS011;11965;53.640;10.050;2023-11-19T06:10:42;11.59;;;11.59;;
23573;SDS011;11965;53.640;10.050;2023-11-19T06:13:12;11.62;;;11.62;;
23573;SDS011;11965;53.640;10.050;2023-11-19T06:15:41;12.09;;;12.09;;
23573;SDS011;11965;53.640;10.050;2023-11-19T06:18:08;11.32;;;11.32;;
23573;SDS011;11965;53.640;10.050;2023-11-19T06:20:36;12.45;;;12.45;;
23573;SDS011;11965;53.640;10.050;2023-11-19T06:23:03;11.63;;;11.63;;
23573;SDS011;11965;53.640;10.050;2023-11-19T06:25:30;11.95;;;11.95;;
23573;SDS011;11965;53.640;10.050;2023-11-19T06:27:58;12.10;;;12.10;;
23573;SDS011;11965;53.640;10.050;2023-11-19T06:30:26;11.76;;;11.76;;
23573;SDS011;11965;53.640;10.050;2023-11-19T06:32:55;12.10;;;12.10;;
23573;SDS011;11965;53.640;10.050;2023-11-19T06:35:22;12.63;;;12.63;;
23573;SDS011;11965;53.640;10.050;2023-11-19T06:37:49;12.90;;;12.90;;
23573;SDS011;11965;53.640;10.050;2023-11-19T06:40:16;12.58;;;12.58;;
23573;SDS011;11965;53.640;10.050;2023-11-19T06:42:43;13.28;;;13.28;;
23573;SDS011;11965;53.640;10.050;2023-11-19T06:45:10;13.35;;;13.35;;
23573;SDS011;11965;53.640;10.050;2023-11-19T06:47:38;13.55;;;13.55;;
23573;SDS011;11965;53.640;10.050;2023-11-19T06:50:06;13.45;;;13.45;;
23573;SDS011;11965;53.640;10.050;2023-11-19T06:52:34;13.21;;;13.21;;
23573;SDS011;11965;53.640;10.050;2023-11-19T06:55:03;12.38;;;12.38;;
23573;SDS011;11965;53.640;10.050;2023-11-19T06:57:31;12.33;;;12.33;;
23573;SDS011;11965;53.640;10.050;2023-11-19T06:59:58;12.18;;;12.18;;
23573;SDS011;11965;53.640;10.050;2023-11-19T07:02:25;11.46;;;11.43;;
23573;SDS011;11965;53.640;10.050;2023-11-19T07:04:54;11.18;;;11.18;;
23573;SDS011;11965;53.640;10.050;2023-11-19T07:07:20;10.79;;;10.79;;
23573;SDS011;11965;53.640;10.050;2023-11-19T07:09:47;10.42;;;10.42;;
23573;SDS011;11965;53.640;10.050;2023-11-19T07:12:15;9.77;;;9.71;;
23573;SDS011;11965;53.640;10.050;2023-11-19T07:14:42;8.80;;;8.59;;
23573;SDS011;11965;53.640;10.050;2023-11-19T07:17:09;8.80;;;8.35;;
23573;SDS011;11965;53.640;10.050;2023-11-19T07:19:36;8.51;;;8.28;;
23573;SDS011;11965;53.640;10.050;2023-11-19T07:22:04;8.14;;;8.14;;
23573;SDS011;11965;53.640;10.050;2023-11-19T07:24:32;8.02;;;7.97;;
23573;SDS011;11965;53.640;10.050;2023-11-19T07:26:59;7.85;;;7.51;;
23573;SDS011;11965;53.640;10.050;2023-11-19T07:29:29;7.57;;;7.12;;
23573;SDS011;11965;53.640;10.050;2023-11-19T07:31:57;8.30;;;7.66;;
23573;SDS011;11965;53.640;10.050;2023-11-19T07:34:23;8.36;;;7.81;;
23573;SDS011;11965;53.640;10.050;2023-11-19T07:36:51;8.17;;;7.43;;
23573;SDS011;11965;53.640;10.050;2023-11-19T07:39:19;7.53;;;6.72;;
23573;SDS011;11965;53.640;10.050;2023-11-19T07:41:47;7.10;;;6.39;;
23573;SDS011;11965;53.640;10.050;2023-11-19T07:44:14;7.40;;;6.58;;
23573;SDS011;11965;53.640;10.050;2023-11-19T07:46:41;7.18;;;6.35;;
23573;SDS011;11965;53.640;10.050;2023-11-19T07:49:10;7.45;;;6.40;;
23573;SDS011;11965;53.640;10.050;2023-11-19T07:51:37;7.81;;;6.40;;
23573;SDS011;11965;53.640;10.050;2023-11-19T07:54:04;9.86;;;7.77;;
23573;SDS011;11965;53.640;10.050;2023-11-19T07:56:32;10.11;;;7.85;;
23573;SDS011;11965;53.640;10.050;2023-11-19T07:59:00;9.25;;;7.13;;
23573;SDS011;11965;53.640;10.050;2023-11-19T08:01:27;10.04;;;7.38;;
23573;SDS011;11965;53.640;10.050;2023-11-19T08:03:54;9.81;;;7.23;;
23573;SDS011;11965;53.640;10.050;2023-11-19T08:06:21;10.57;;;7.80;;
23573;SDS011;11965;53.640;10.050;2023-11-19T08:08:48;9.42;;;7.02;;
23573;SDS011;11965;53.640;10.050;2023-11-19T08:11:15;10.65;;;7.70;;
23573;SDS011;11965;53.640;10.050;2023-11-19T08:13:43;11.76;;;8.38;;
23573;SDS011;11965;53.640;10.050;2023-11-19T08:16:10;11.53;;;8.27;;
23573;SDS011;11965;53.640;10.050;2023-11-19T08:18:37;11.62;;;8.25;;
23573;SDS011;11965;53.640;10.050;2023-11-19T08:21:04;11.76;;;8.27;;
23573;SDS011;11965;53.640;10.050;2023-11-19T08:23:31;11.98;;;8.60;;
23573;SDS011;11965;53.640;10.050;2023-11-19T08:25:59;12.93;;;9.00;;
23573;SDS011;11965;53.640;10.050;2023-11-19T08:28:26;13.03;;;8.98;;
23573;SDS011;11965;53.640;10.050;2023-11-19T08:30:54;11.74;;;8.32;;
23573;SDS011;11965;53.640;10.050;2023-11-19T08:33:21;11.86;;;8.30;;
23573;SDS011;11965;53.640;10.050;2023-11-19T08:35:48;13.02;;;8.91;;
23573;SDS011;11965;53.640;10.050;2023-11-19T08:38:16;12.59;;;8.65;;
23573;SDS011;11965;53.640;10.050;2023-11-19T08:40:42;14.14;;;9.42;;
23573;SDS011;11965;53.640;10.050;2023-11-19T08:43:09;14.17;;;9.32;;
23573;SDS011;11965;53.640;10.050;2023-11-19T08:45:36;13.02;;;8.72;;
23573;SDS011;11965;53.640;10.050;2023-11-19T08:48:05;12.34;;;8.45;;
23573;SDS011;11965;53.640;10.050;2023-11-19T08:50:32;12.54;;;8.52;;
23573;SDS011;11965;53.640;10.050;2023-11-19T08:52:59;12.52;;;8.60;;
23573;SDS011;11965;53.640;10.050;2023-11-19T08:55:25;12.28;;;8.45;;
23573;SDS011;11965;53.640;10.050;2023-11-19T08:57:52;14.44;;;9.60;;
23573;SDS011;11965;53.640;10.050;2023-11-19T09:00:19;13.37;;;9.01;;
23573;SDS011;11965;53.640;10.050;2023-11-19T09:02:46;13.69;;;9.16;;
23573;SDS011;11965;53.640;10.050;2023-11-19T09:05:15;14.52;;;9.41;;
23573;SDS011;11965;53.640;10.050;2023-11-19T09:07:41;14.02;;;9.16;;
23573;SDS011;11965;53.640;10.050;2023-11-19T09:10:09;13.78;;;8.95;;
23573;SDS011;11965;53.640;10.050;2023-11-19T09:12:37;14.57;;;9.48;;
23573;SDS011;11965;53.640;10.050;2023-11-19T09:15:04;14.39;;;9.48;;
23573;SDS011;11965;53.640;10.050;2023-11-19T09:17:32;14.91;;;9.86;;
23573;SDS011;11965;53.640;10.050;2023-11-19T09:20:00;14.60;;;9.78;;
23573;SDS011;11965;53.640;10.050;2023-11-19T09:22:28;13.90;;;9.36;;
23573;SDS011;11965;53.640;10.050;2023-11-19T09:24:55;15.62;;;10.15;;
23573;SDS011;11965;53.640;10.050;2023-11-19T09:27:25;15.23;;;10.17;;
23573;SDS011;11965;53.640;10.050;2023-11-19T09:29:51;14.87;;;10.07;;
23573;SDS011;11965;53.640;10.050;2023-11-19T09:32:22;15.85;;;10.51;;
23573;SDS011;11965;53.640;10.050;2023-11-19T09:34:49;15.46;;;10.21;;
23573;SDS011;11965;53.640;10.050;2023-11-19T09:37:16;16.93;;;11.07;;
23573;SDS011;11965;53.640;10.050;2023-11-19T09:39:45;15.76;;;10.19;;
23573;SDS011;11965;53.640;10.050;2023-11-19T09:42:12;17.52;;;11.17;;
23573;SDS011;11965;53.640;10.050;2023-11-19T09:44:39;16.90;;;10.91;;
23573;SDS011;11965;53.640;10.050;2023-11-19T09:47:09;17.66;;;11.18;;
23573;SDS011;11965;53.640;10.050;2023-11-19T09:49:38;18.10;;;11.33;;
23573;SDS011;11965;53.640;10.050;2023-11-19T09:52:05;15.63;;;9.91;;
23573;SDS011;11965;53.640;10.050;2023-11-19T09:54:33;16.70;;;10.94;;
23573;SDS011;11965;53.640;10.050;2023-11-19T09:57:01;16.73;;;10.73;;
23573;SDS011;11965;53.640;10.050;2023-11-19T09:59:31;15.98;;;10.32;;
23573;SDS011;11965;53.640;10.050;2023-11-19T10:01:59;17.00;;;10.92;;
23573;SDS011;11965;53.640;10.050;2023-11-19T10:04:26;18.93;;;11.81;;
23573;SDS011;11965;53.640;10.050;2023-11-19T10:06:56;17.47;;;10.97;;
23573;SDS011;11965;53.640;10.050;2023-11-19T10:09:23;18.05;;;11.37;;
23573;SDS011;11965;53.640;10.050;2023-11-19T10:11:50;18.63;;;11.42;;
23573;SDS011;11965;53.640;10.050;2023-11-19T10:14:19;19.46;;;12.05;;
23573;SDS011;11965;53.640;10.050;2023-11-19T10:16:49;19.49;;;12.14;;
23573;SDS011;11965;53.640;10.050;2023-11-19T10:19:18;19.06;;;11.95;;
23573;SDS011;11965;53.640;10.050;2023-11-19T10:21:46;18.62;;;11.64;;
23573;SDS011;11965;53.640;10.050;2023-11-19T10:24:13;17.70;;;11.04;;
23573;SDS011;11965;53.640;10.050;2023-11-19T10:26:40;18.28;;;11.28;;
23573;SDS011;11965;53.640;10.050;2023-11-19T10:29:08;18.59;;;11.42;;
23573;SDS011;11965;53.640;10.050;2023-11-19T10:31:36;18.82;;;11.61;;
23573;SDS011;11965;53.640;10.050;2023-11-19T10:34:03;19.59;;;12.01;;
23573;SDS011;11965;53.640;10.050;2023-11-19T10:36:37;18.48;;;11.39;;
23573;SDS011;11965;53.640;10.050;2023-11-19T10:39:06;18.97;;;11.83;;
23573;SDS011;11965;53.640;10.050;2023-11-19T10:41:34;17.33;;;11.08;;
23573;SDS011;11965;53.640;10.050;2023-11-19T10:44:01;16.37;;;10.48;;
23573;SDS011;11965;53.640;10.050;2023-11-19T10:46:39;17.06;;;10.88;;
23573;SDS011;11965;53.640;10.050;2023-11-19T10:49:07;18.24;;;11.49;;
23573;SDS011;11965;53.640;10.050;2023-11-19T10:51:34;17.20;;;10.97;;
23573;SDS011;11965;53.640;10.050;2023-11-19T10:54:02;16.09;;;10.27;;
23573;SDS011;11965;53.640;10.050;2023-11-19T10:56:32;16.98;;;10.81;;
23573;SDS011;11965;53.640;10.050;2023-11-19T10:59:00;19.74;;;12.03;;
23573;SDS011;11965;53.640;10.050;2023-11-19T11:01:43;18.86;;;11.50;;
23573;SDS011;11965;53.640;10.050;2023-11-19T11:04:14;16.79;;;10.50;;
23573;SDS011;11965;53.640;10.050;2023-11-19T11:06:50;16.05;;;10.19;;
23573;SDS011;11965;53.640;10.050;2023-11-19T11:09:17;16.38;;;10.35;;
23573;SDS011;11965;53.640;10.050;2023-11-19T11:11:44;17.12;;;10.67;;
23573;SDS011;11965;53.640;10.050;2023-11-19T11:14:13;17.99;;;11.44;;
23573;SDS011;11965;53.640;10.050;2023-11-19T11:16:43;17.06;;;10.97;;
23573;SDS011;11965;53.640;10.050;2023-11-19T11:19:11;17.31;;;10.80;;
23573;SDS011;11965;53.640;10.050;2023-11-19T11:21:40;17.08;;;10.78;;
23573;SDS011;11965;53.640;10.050;2023-11-19T11:24:17;17.85;;;11.18;;
23573;SDS011;11965;53.640;10.050;2023-11-19T11:27:08;18.80;;;11.46;;
23573;SDS011;11965;53.640;10.050;2023-11-19T11:29:59;17.21;;;10.80;;
23573;SDS011;11965;53.640;10.050;2023-11-19T11:32:38;18.60;;;11.58;;
23573;SDS011;11965;53.640;10.050;2023-11-19T11:35:22;17.78;;;10.91;;
23573;SDS011;11965;53.640;10.050;2023-11-19T11:38:01;17.24;;;10.83;;
23573;SDS011;11965;53.640;10.050;2023-11-19T11:40:33;17.77;;;11.08;;
23573;SDS011;11965;53.640;10.050;2023-11-19T11:43:01;19.39;;;11.90;;
23573;SDS011;11965;53.640;10.050;2023-11-19T11:45:35;16.28;;;10.36;;
23573;SDS011;11965;53.640;10.050;2023-11-19T11:48:14;16.55;;;10.62;;
23573;SDS011;11965;53.640;10.050;2023-11-19T11:50:56;16.10;;;10.19;;
23573;SDS011;11965;53.640;10.050;2023-11-19T11:53:25;16.56;;;10.75;;
23573;SDS011;11965;53.640;10.050;2023-11-19T11:55:56;17.96;;;11.28;;
23573;SDS011;11965;53.640;10.050;2023-11-19T11:58:30;16.64;;;10.69;;
23573;SDS011;11965;53.640;10.050;2023-11-19T12:00:58;14.62;;;9.39;;
23573;SDS011;11965;53.640;10.050;2023-11-19T12:03:27;15.52;;;9.85;;
23573;SDS011;11965;53.640;10.050;2023-11-19T12:05:57;17.71;;;11.03;;
23573;SDS011;11965;53.640;10.050;2023-11-19T12:08:26;17.37;;;10.95;;
23573;SDS011;11965;53.640;10.050;2023-11-19T12:10:54;16.85;;;10.69;;
23573;SDS011;11965;53.640;10.050;2023-11-19T12:13:23;17.05;;;10.79;;
23573;SDS011;11965;53.640;10.050;2023-11-19T12:16:07;19.37;;;12.09;;
23573;SDS011;11965;53.640;10.050;2023-11-19T12:18:36;19.08;;;11.92;;
23573;SDS011;11965;53.640;10.050;2023-11-19T12:21:08;17.33;;;10.95;;
23573;SDS011;11965;53.640;10.050;2023-11-19T12:23:43;19.12;;;11.90;;
23573;SDS011;11965;53.640;10.050;2023-11-19T12:29:02;17.85;;;11.32;;
23573;SDS011;11965;53.640;10.050;2023-11-19T12:31:33;16.01;;;10.48;;
23573;SDS011;11965;53.640;10.050;2023-11-19T12:34:07;14.86;;;9.95;;
23573;SDS011;11965;53.640;10.050;2023-11-19T12:36:39;16.58;;;10.81;;
23573;SDS011;11965;53.640;10.050;2023-11-19T12:39:08;16.80;;;10.90;;
23573;SDS011;11965;53.640;10.050;2023-11-19T12:41:53;14.56;;;9.57;;
23573;SDS011;11965;53.640;10.050;2023-11-19T12:44:21;15.54;;;9.98;;
23573;SDS011;11965;53.640;10.050;2023-11-19T12:49:33;16.87;;;10.44;;
23573;SDS011;11965;53.640;10.050;2023-11-19T12:52:01;15.98;;;9.81;;
23573;SDS011;11965;53.640;10.050;2023-11-19T12:54:37;14.85;;;9.32;;
23573;SDS011;11965;53.640;10.050;2023-11-19T12:57:05;15.30;;;9.60;;
23573;SDS011;11965;53.640;10.050;2023-11-19T12:59:31;15.36;;;9.75;;
23573;SDS011;11965;53.640;10.050;2023-11-19T13:01:59;14.90;;;9.48;;
23573;SDS011;11965;53.640;10.050;2023-11-19T13:04:28;14.99;;;9.62;;
23573;SDS011;11965;53.640;10.050;2023-11-19T13:06:57;16.22;;;10.54;;
23573;SDS011;11965;53.640;10.050;2023-11-19T13:09:25;14.67;;;9.59;;
23573;SDS011;11965;53.640;10.050;2023-11-19T13:11:54;15.25;;;9.90;;
23573;SDS011;11965;53.640;10.050;2023-11-19T13:14:22;14.82;;;9.69;;
23573;SDS011;11965;53.640;10.050;2023-11-19T13:16:49;15.97;;;10.34;;
23573;SDS011;11965;53.640;10.050;2023-11-19T13:19:16;15.68;;;10.08;;
23573;SDS011;11965;53.640;10.050;2023-11-19T13:21:44;15.58;;;10.05;;
23573;SDS011;11965;53.640;10.050;2023-11-19T13:24:12;15.41;;;10.11;;
23573;SDS011;11965;53.640;10.050;2023-11-19T13:26:41;15.69;;;10.24;;
23573;SDS011;11965;53.640;10.050;2023-11-19T13:29:08;15.48;;;9.97;;
23573;SDS011;11965;53.640;10.050;2023-11-19T13:31:36;16.28;;;10.49;;
23573;SDS011;11965;53.640;10.050;2023-11-19T13:34:03;15.89;;;10.16;;
23573;SDS011;11965;53.640;10.050;2023-11-19T13:36:32;16.81;;;10.68;;
23573;SDS011;11965;53.640;10.050;2023-11-19T13:38:59;15.87;;;10.02;;
23573;SDS011;11965;53.640;10.050;2023-11-19T13:41:26;16.96;;;10.70;;
23573;SDS011;11965;53.640;10.050;2023-11-19T13:43:54;14.97;;;9.81;;
23573;SDS011;11965;53.640;10.050;2023-11-19T13:46:21;15.16;;;10.01;;
23573;SDS011;11965;53.640;10.050;2023-11-19T13:48:48;14.85;;;9.67;;
23573;SDS011;11965;53.640;10.050;2023-11-19T13:51:16;15.29;;;10.12;;
23573;SDS011;11965;53.640;10.050;2023-11-19T13:53:43;16.04;;;10.35;;
23573;SDS011;11965;53.640;10.050;2023-11-19T13:56:10;15.57;;;10.13;;
23573;SDS011;11965;53.640;10.050;2023-11-19T13:58:37;15.07;;;9.72;;
23573;SDS011;11965;53.640;10.050;2023-11-19T14:01:07;15.36;;;10.12;;
23573;SDS011;11965;53.640;10.050;2023-11-19T14:03:34;16.16;;;10.54;;
23573;SDS011;11965;53.640;10.050;2023-11-19T14:06:01;14.85;;;10.06;;
23573;SDS011;11965;53.640;10.050;2023-11-19T14:08:29;15.54;;;10.59;;
23573;SDS011;11965;53.640;10.050;2023-11-19T14:10:56;14.49;;;9.82;;
23573;SDS011;11965;53.640;10.050;2023-11-19T14:13:23;16.36;;;10.82;;
23573;SDS011;11965;53.640;10.050;2023-11-19T14:15:50;16.51;;;10.83;;
23573;SDS011;11965;53.640;10.050;2023-11-19T14:18:19;17.06;;;11.05;;
23573;SDS011;11965;53.640;10.050;2023-11-19T14:20:46;16.20;;;10.75;;
23573;SDS011;11965;53.640;10.050;2023-11-19T14:23:13;15.28;;;10.26;;
23573;SDS011;11965;53.640;10.050;2023-11-19T14:25:40;15.98;;;10.27;;
23573;SDS011;11965;53.640;10.050;2023-11-19T14:28:07;16.73;;;10.38;;
23573;SDS011;11965;53.640;10.050;2023-11-19T14:30:34;16.60;;;10.27;;
23573;SDS011;11965;53.640;10.050;2023-11-19T14:33:00;18.27;;;11.33;;